sensor_id;sensor_type;location;lat;lon;timestamp;pressure;altitude;pressure_sealevel;temperature;humidity
51261;BME280;61705;46.228;24.812;2023-05-19T00:00:18;97784.16;;;14.88;82.23
51261;BME280;61705;46.228;24.812;2023-05-19T00:02:45;97788.81;;;14.84;82.19
51261;BME280;61705;46.228;24.812;2023-05-19T00:05:12;97785.38;;;14.82;82.40
51261;BME280;61705;46.228;24.812;2023-05-19T00:07:41;97781.50;;;14.88;82.32
51261;BME280;61705;46.228;24.812;2023-05-19T00:10:09;97786.34;;;14.81;82.56
51261;BME280;61705;46.228;24.812;2023-05-19T00:12:37;97785.97;;;14.87;82.41
51261;BME280;61705;46.228;24.812;2023-05-19T00:15:04;97786.22;;;14.83;82.64
51261;BME280;61705;46.228;24.812;2023-05-19T00:17:31;97789.66;;;14.85;82.67
51261;BME280;61705;46.228;24.812;2023-05-19T00:19:59;97793.38;;;14.82;83.13
51261;BME280;61705;46.228;24.812;2023-05-19T00:22:26;97797.84;;;14.82;83.05
51261;BME280;61705;46.228;24.812;2023-05-19T00:24:53;97794.31;;;14.81;83.15
51261;BME280;61705;46.228;24.812;2023-05-19T00:27:20;97795.53;;;14.76;83.49
51261;BME280;61705;46.228;24.812;2023-05-19T00:29:46;97796.78;;;14.84;83.49
51261;BME280;61705;46.228;24.812;2023-05-19T00:32:13;97804.78;;;14.84;83.79
51261;BME280;61705;46.228;24.812;2023-05-19T00:34:41;97798.00;;;14.79;83.93
51261;BME280;61705;46.228;24.812;2023-05-19T00:37:08;97804.75;;;14.70;84.37
51261;BME280;61705;46.228;24.812;2023-05-19T00:39:34;97801.41;;;14.66;84.45
51261;BME280;61705;46.228;24.812;2023-05-19T00:42:01;97797.72;;;14.69;84.47
51261;BME280;61705;46.228;24.812;2023-05-19T00:44:28;97807.78;;;14.64;84.42
51261;BME280;61705;46.228;24.812;2023-05-19T00:46:54;97807.19;;;14.59;84.71
51261;BME280;61705;46.228;24.812;2023-05-19T00:49:21;97812.59;;;14.57;85.00
51261;BME280;61705;46.228;24.812;2023-05-19T00:51:48;97816.91;;;14.60;84.92
51261;BME280;61705;46.228;24.812;2023-05-19T00:54:15;97824.94;;;14.58;84.85
51261;BME280;61705;46.228;24.812;2023-05-19T00:56:42;97827.22;;;14.50;85.24
51261;BME280;61705;46.228;24.812;2023-05-19T00:59:08;97823.25;;;14.57;85.03
51261;BME280;61705;46.228;24.812;2023-05-19T01:01:35;97823.75;;;14.48;85.13
51261;BME280;61705;46.228;24.812;2023-05-19T01:04:02;97818.78;;;14.42;85.63
51261;BME280;61705;46.228;24.812;2023-05-19T01:06:31;97824.88;;;14.44;85.61
51261;BME280;61705;46.228;24.812;2023-05-19T01:08:57;97821.72;;;14.37;85.74
51261;BME280;61705;46.228;24.812;2023-05-19T01:11:24;97830.72;;;14.35;85.92
51261;BME280;61705;46.228;24.812;2023-05-19T01:13:51;97827.03;;;14.37;85.98
51261;BME280;61705;46.228;24.812;2023-05-19T01:16:24;97825.09;;;14.25;86.31
51261;BME280;61705;46.228;24.812;2023-05-19T01:19:00;97824.50;;;14.20;86.91
51261;BME280;61705;46.228;24.812;2023-05-19T01:21:44;97830.78;;;14.19;86.76
51261;BME280;61705;46.228;24.812;2023-05-19T01:32:45;97836.38;;;13.98;89.40
51261;BME280;61705;46.228;24.812;2023-05-19T01:35:14;97831.22;;;13.95;89.99
51261;BME280;61705;46.228;24.812;2023-05-19T01:37:42;97835.44;;;13.99;89.53
51261;BME280;61705;46.228;24.812;2023-05-19T01:40:10;97826.31;;;14.04;88.86
51261;BME280;61705;46.228;24.812;2023-05-19T01:42:38;97827.34;;;14.01;88.54
51261;BME280;61705;46.228;24.812;2023-05-19T01:45:06;97821.13;;;14.02;88.43
51261;BME280;61705;46.228;24.812;2023-05-19T01:47:40;97834.03;;;14.08;88.17
51261;BME280;61705;46.228;24.812;2023-05-19T01:50:07;97822.88;;;14.02;88.41
51261;BME280;61705;46.228;24.812;2023-05-19T01:52:34;97839.03;;;13.98;88.98
51261;BME280;61705;46.228;24.812;2023-05-19T01:55:00;97840.13;;;13.94;89.02
51261;BME280;61705;46.228;24.812;2023-05-19T01:57:57;97843.16;;;13.88;89.25
51261;BME280;61705;46.228;24.812;2023-05-19T02:00:53;97849.56;;;13.84;89.50
51261;BME280;61705;46.228;24.812;2023-05-19T02:09:01;97846.75;;;13.71;90.20
51261;BME280;61705;46.228;24.812;2023-05-19T02:14:28;97849.72;;;13.65;90.21
51261;BME280;61705;46.228;24.812;2023-05-19T02:16:56;97854.25;;;13.63;90.22
51261;BME280;61705;46.228;24.812;2023-05-19T02:19:24;97852.22;;;13.68;90.22
51261;BME280;61705;46.228;24.812;2023-05-19T02:21:51;97854.53;;;13.74;89.84
51261;BME280;61705;46.228;24.812;2023-05-19T02:24:17;97864.47;;;13.71;89.94
51261;BME280;61705;46.228;24.812;2023-05-19T02:26:45;97865.91;;;13.77;90.17
51261;BME280;61705;46.228;24.812;2023-05-19T02:29:12;97875.59;;;13.78;90.24
51261;BME280;61705;46.228;24.812;2023-05-19T02:31:38;97870.91;;;13.83;90.16
51261;BME280;61705;46.228;24.812;2023-05-19T02:34:05;97878.78;;;13.84;90.49
51261;BME280;61705;46.228;24.812;2023-05-19T02:36:34;97878.44;;;13.90;90.44
51261;BME280;61705;46.228;24.812;2023-05-19T02:39:04;97887.78;;;13.97;90.26
51261;BME280;61705;46.228;24.812;2023-05-19T02:41:30;97891.91;;;14.03;90.02
51261;BME280;61705;46.228;24.812;2023-05-19T02:43:57;97899.53;;;14.09;90.05
51261;BME280;61705;46.228;24.812;2023-05-19T02:46:24;97897.63;;;14.11;90.04
51261;BME280;61705;46.228;24.812;2023-05-19T02:48:53;97897.56;;;14.13;90.07
51261;BME280;61705;46.228;24.812;2023-05-19T02:51:20;97899.88;;;14.19;89.98
51261;BME280;61705;46.228;24.812;2023-05-19T02:53:47;97887.84;;;14.28;89.50
51261;BME280;61705;46.228;24.812;2023-05-19T02:56:13;97885.19;;;14.28;89.46
51261;BME280;61705;46.228;24.812;2023-05-19T02:58:40;97880.72;;;14.28;89.37
51261;BME280;61705;46.228;24.812;2023-05-19T03:01:08;97889.38;;;14.32;89.19
51261;BME280;61705;46.228;24.812;2023-05-19T03:03:35;97894.88;;;14.29;89.30
51261;BME280;61705;46.228;24.812;2023-05-19T03:06:02;97891.28;;;14.30;89.20
51261;BME280;61705;46.228;24.812;2023-05-19T03:08:29;97891.03;;;14.34;89.09
51261;BME280;61705;46.228;24.812;2023-05-19T03:10:55;97891.81;;;14.36;89.11
51261;BME280;61705;46.228;24.812;2023-05-19T03:13:22;97895.16;;;14.40;88.63
51261;BME280;61705;46.228;24.812;2023-05-19T03:15:49;97895.03;;;14.41;89.11
51261;BME280;61705;46.228;24.812;2023-05-19T03:18:16;97903.97;;;14.40;89.06
51261;BME280;61705;46.228;24.812;2023-05-19T03:20:43;97897.44;;;14.46;89.12
51261;BME280;61705;46.228;24.812;2023-05-19T03:23:10;97897.22;;;14.51;88.90
51261;BME280;61705;46.228;24.812;2023-05-19T03:25:37;97899.88;;;14.51;88.77
51261;BME280;61705;46.228;24.812;2023-05-19T03:28:04;97902.19;;;14.57;88.92
51261;BME280;61705;46.228;24.812;2023-05-19T03:30:30;97902.84;;;14.60;88.66
51261;BME280;61705;46.228;24.812;2023-05-19T03:32:58;97902.00;;;14.60;88.74
51261;BME280;61705;46.228;24.812;2023-05-19T03:35:27;97904.09;;;14.69;88.28
51261;BME280;61705;46.228;24.812;2023-05-19T03:37:54;97907.81;;;14.66;88.43
51261;BME280;61705;46.228;24.812;2023-05-19T03:40:20;97911.91;;;14.72;87.96
51261;BME280;61705;46.228;24.812;2023-05-19T03:42:47;97908.41;;;14.72;88.01
51261;BME280;61705;46.228;24.812;2023-05-19T03:45:14;97910.88;;;14.75;87.61
51261;BME280;61705;46.228;24.812;2023-05-19T03:47:40;97909.44;;;14.69;87.66
51261;BME280;61705;46.228;24.812;2023-05-19T03:50:08;97913.72;;;14.72;87.87
51261;BME280;61705;46.228;24.812;2023-05-19T03:52:35;97910.28;;;14.69;87.99
51261;BME280;61705;46.228;24.812;2023-05-19T03:55:01;97912.75;;;14.73;88.08
51261;BME280;61705;46.228;24.812;2023-05-19T03:57:28;97915.19;;;14.77;87.76
51261;BME280;61705;46.228;24.812;2023-05-19T03:59:55;97919.38;;;14.81;87.73
51261;BME280;61705;46.228;24.812;2023-05-19T04:02:22;97916.78;;;14.80;87.40
51261;BME280;61705;46.228;24.812;2023-05-19T04:04:48;97922.78;;;14.83;87.04
51261;BME280;61705;46.228;24.812;2023-05-19T04:07:16;97922.53;;;14.88;87.10
51261;BME280;61705;46.228;24.812;2023-05-19T04:09:43;97922.41;;;14.89;86.70
51261;BME280;61705;46.228;24.812;2023-05-19T04:12:10;97925.75;;;14.93;86.90
51261;BME280;61705;46.228;24.812;2023-05-19T04:14:37;97928.25;;;14.96;86.70
51261;BME280;61705;46.228;24.812;2023-05-19T04:17:04;97923.34;;;15.04;86.42
51261;BME280;61705;46.228;24.812;2023-05-19T04:19:30;97922.88;;;15.12;86.25
51261;BME280;61705;46.228;24.812;2023-05-19T04:21:57;97918.88;;;15.05;86.02
51261;BME280;61705;46.228;24.812;2023-05-19T04:24:24;97923.78;;;15.11;85.87
51261;BME280;61705;46.228;24.812;2023-05-19T04:26:53;97927.91;;;15.16;85.39
51261;BME280;61705;46.228;24.812;2023-05-19T04:29:20;97933.16;;;15.18;85.62
51261;BME280;61705;46.228;24.812;2023-05-19T04:31:48;97931.06;;;15.23;85.59
51261;BME280;61705;46.228;24.812;2023-05-19T04:34:15;97934.41;;;15.27;85.16
51261;BME280;61705;46.228;24.812;2023-05-19T04:36:45;97925.84;;;15.36;84.88
51261;BME280;61705;46.228;24.812;2023-05-19T04:39:12;97925.75;;;15.37;84.56
51261;BME280;61705;46.228;24.812;2023-05-19T04:41:39;97925.38;;;15.44;84.41
51261;BME280;61705;46.228;24.812;2023-05-19T04:44:10;97926.91;;;15.48;83.67
51261;BME280;61705;46.228;24.812;2023-05-19T04:46:41;97932.91;;;15.51;83.52
51261;BME280;61705;46.228;24.812;2023-05-19T04:49:08;97930.34;;;15.50;83.48
51261;BME280;61705;46.228;24.812;2023-05-19T04:51:37;97928.81;;;15.60;82.94
51261;BME280;61705;46.228;24.812;2023-05-19T04:54:07;97938.97;;;15.69;82.92
51261;BME280;61705;46.228;24.812;2023-05-19T04:56:34;97926.75;;;15.79;82.05
51261;BME280;61705;46.228;24.812;2023-05-19T04:59:01;97936.56;;;15.93;81.78
51261;BME280;61705;46.228;24.812;2023-05-19T05:01:27;97933.69;;;16.10;81.48
51261;BME280;61705;46.228;24.812;2023-05-19T05:03:56;97939.44;;;16.31;80.57
51261;BME280;61705;46.228;24.812;2023-05-19T05:06:24;97944.16;;;16.41;80.21
51261;BME280;61705;46.228;24.812;2023-05-19T05:08:51;97947.25;;;16.34;80.09
51261;BME280;61705;46.228;24.812;2023-05-19T05:11:18;97953.31;;;16.37;79.84
51261;BME280;61705;46.228;24.812;2023-05-19T05:13:46;97954.88;;;16.26;80.15
51261;BME280;61705;46.228;24.812;2023-05-19T05:16:13;97958.19;;;16.30;79.72
51261;BME280;61705;46.228;24.812;2023-05-19T05:18:40;97952.34;;;16.52;78.75
51261;BME280;61705;46.228;24.812;2023-05-19T05:21:10;97950.16;;;16.86;77.36
51261;BME280;61705;46.228;24.812;2023-05-19T05:23:37;97953.31;;;17.18;76.10
51261;BME280;61705;46.228;24.812;2023-05-19T05:26:09;97953.31;;;17.18;76.10
51261;BME280;61705;46.228;24.812;2023-05-19T05:28:36;97954.75;;;17.62;73.30
51261;BME280;61705;46.228;24.812;2023-05-19T05:31:03;97954.34;;;17.81;72.88
51261;BME280;61705;46.228;24.812;2023-05-19T05:33:30;97957.66;;;17.71;72.38
51261;BME280;61705;46.228;24.812;2023-05-19T05:35:57;97947.94;;;17.58;72.35
51261;BME280;61705;46.228;24.812;2023-05-19T05:38:24;97945.66;;;17.39;72.97
51261;BME280;61705;46.228;24.812;2023-05-19T05:40:50;97951.78;;;17.01;73.46
51261;BME280;61705;46.228;24.812;2023-05-19T05:43:17;97952.28;;;16.66;74.88
51261;BME280;61705;46.228;24.812;2023-05-19T05:45:44;97946.09;;;16.66;75.17
51261;BME280;61705;46.228;24.812;2023-05-19T05:48:11;97951.31;;;16.67;75.08
51261;BME280;61705;46.228;24.812;2023-05-19T05:50:38;97953.84;;;16.56;75.08
51261;BME280;61705;46.228;24.812;2023-05-19T05:53:05;97945.78;;;16.70;74.91
51261;BME280;61705;46.228;24.812;2023-05-19T05:55:33;97948.53;;;16.83;74.69
51261;BME280;61705;46.228;24.812;2023-05-19T05:58:00;97947.19;;;16.90;74.83
51261;BME280;61705;46.228;24.812;2023-05-19T06:00:27;97941.03;;;17.15;74.02
51261;BME280;61705;46.228;24.812;2023-05-19T06:02:55;97948.00;;;17.18;73.97
51261;BME280;61705;46.228;24.812;2023-05-19T06:05:22;97963.41;;;17.27;73.04
51261;BME280;61705;46.228;24.812;2023-05-19T06:07:50;97960.28;;;17.20;73.32
51261;BME280;61705;46.228;24.812;2023-05-19T06:10:17;97958.34;;;17.22;73.18
51261;BME280;61705;46.228;24.812;2023-05-19T06:12:44;97964.91;;;17.31;72.87
51261;BME280;61705;46.228;24.812;2023-05-19T06:15:10;97969.59;;;17.53;72.26
51261;BME280;61705;46.228;24.812;2023-05-19T06:17:37;97966.81;;;17.67;72.00
51261;BME280;61705;46.228;24.812;2023-05-19T06:20:05;97971.66;;;17.75;71.71
51261;BME280;61705;46.228;24.812;2023-05-19T06:22:32;97971.38;;;17.80;71.71
51261;BME280;61705;46.228;24.812;2023-05-19T06:24:58;97969.84;;;17.75;71.47
51261;BME280;61705;46.228;24.812;2023-05-19T06:27:25;97963.63;;;17.75;71.59
51261;BME280;61705;46.228;24.812;2023-05-19T06:29:52;97963.63;;;17.75;71.73
51261;BME280;61705;46.228;24.812;2023-05-19T06:32:19;97963.00;;;17.71;71.85
51261;BME280;61705;46.228;24.812;2023-05-19T06:34:46;97967.16;;;17.75;71.28
51261;BME280;61705;46.228;24.812;2023-05-19T06:37:20;97971.13;;;17.70;71.37
51261;BME280;61705;46.228;24.812;2023-05-19T06:39:49;97968.13;;;17.62;71.94
51261;BME280;61705;46.228;24.812;2023-05-19T06:42:18;97970.72;;;17.76;71.64
51261;BME280;61705;46.228;24.812;2023-05-19T06:44:49;97977.78;;;17.77;71.71
51261;BME280;61705;46.228;24.812;2023-05-19T06:47:17;97972.50;;;18.01;71.02
51261;BME280;61705;46.228;24.812;2023-05-19T06:49:45;97966.09;;;18.16;70.27
51261;BME280;61705;46.228;24.812;2023-05-19T06:52:12;97973.47;;;18.26;69.65
51261;BME280;61705;46.228;24.812;2023-05-19T06:54:38;97972.22;;;18.42;69.36
51261;BME280;61705;46.228;24.812;2023-05-19T06:57:05;97977.25;;;18.47;68.80
51261;BME280;61705;46.228;24.812;2023-05-19T06:59:32;97974.28;;;18.63;68.37
51261;BME280;61705;46.228;24.812;2023-05-19T07:01:59;97973.84;;;18.69;68.04
51261;BME280;61705;46.228;24.812;2023-05-19T07:04:27;97972.63;;;19.10;67.11
51261;BME280;61705;46.228;24.812;2023-05-19T07:06:54;97971.72;;;18.98;67.20
51261;BME280;61705;46.228;24.812;2023-05-19T07:09:21;97975.19;;;19.11;66.87
51261;BME280;61705;46.228;24.812;2023-05-19T07:11:48;97964.81;;;19.42;66.16
51261;BME280;61705;46.228;24.812;2023-05-19T07:14:14;97974.25;;;19.24;66.38
51261;BME280;61705;46.228;24.812;2023-05-19T07:16:41;97977.22;;;19.32;66.04
51261;BME280;61705;46.228;24.812;2023-05-19T07:19:08;97969.44;;;19.40;65.78
51261;BME280;61705;46.228;24.812;2023-05-19T07:21:41;97977.22;;;19.32;65.59
51261;BME280;61705;46.228;24.812;2023-05-19T07:24:10;97976.34;;;19.31;65.37
51261;BME280;61705;46.228;24.812;2023-05-19T07:26:40;97972.13;;;19.40;64.77
51261;BME280;61705;46.228;24.812;2023-05-19T07:29:08;97971.75;;;19.80;63.83
51261;BME280;61705;46.228;24.812;2023-05-19T07:31:34;97971.50;;;19.94;63.20
51261;BME280;61705;46.228;24.812;2023-05-19T07:34:02;97970.88;;;20.13;63.12
51261;BME280;61705;46.228;24.812;2023-05-19T07:36:29;97970.78;;;20.03;62.70
51261;BME280;61705;46.228;24.812;2023-05-19T07:38:56;97968.72;;;20.07;62.86
51261;BME280;61705;46.228;24.812;2023-05-19T07:41:23;97965.44;;;20.03;62.70
51261;BME280;61705;46.228;24.812;2023-05-19T07:43:50;97955.91;;;19.77;62.58
51261;BME280;61705;46.228;24.812;2023-05-19T07:46:16;97964.38;;;19.59;63.71
51261;BME280;61705;46.228;24.812;2023-05-19T07:48:43;97966.28;;;19.46;63.63
51261;BME280;61705;46.228;24.812;2023-05-19T07:51:11;97960.47;;;19.52;63.50
51261;BME280;61705;46.228;24.812;2023-05-19T07:53:41;97964.31;;;19.48;63.67
51261;BME280;61705;46.228;24.812;2023-05-19T07:56:07;97953.84;;;19.45;63.49
51261;BME280;61705;46.228;24.812;2023-05-19T07:58:34;97950.69;;;19.51;63.08
51261;BME280;61705;46.228;24.812;2023-05-19T08:01:01;97960.94;;;19.57;63.49
51261;BME280;61705;46.228;24.812;2023-05-19T08:03:28;97967.56;;;19.76;63.24
51261;BME280;61705;46.228;24.812;2023-05-19T08:05:56;97953.69;;;19.71;62.85
51261;BME280;61705;46.228;24.812;2023-05-19T08:08:23;97960.50;;;19.63;63.21
51261;BME280;61705;46.228;24.812;2023-05-19T08:10:50;97958.88;;;19.61;62.79
51261;BME280;61705;46.228;24.812;2023-05-19T08:13:16;97948.53;;;19.56;63.82
51261;BME280;61705;46.228;24.812;2023-05-19T08:15:43;97962.41;;;19.61;63.88
51261;BME280;61705;46.228;24.812;2023-05-19T08:18:10;97950.41;;;19.78;63.55
51261;BME280;61705;46.228;24.812;2023-05-19T08:20:37;97954.06;;;19.77;63.09
51261;BME280;61705;46.228;24.812;2023-05-19T08:23:03;97956.97;;;19.74;62.63
51261;BME280;61705;46.228;24.812;2023-05-19T08:25:30;97953.06;;;19.67;63.38
51261;BME280;61705;46.228;24.812;2023-05-19T08:27:57;97951.09;;;19.69;63.41
51261;BME280;61705;46.228;24.812;2023-05-19T08:30:24;97946.38;;;19.73;63.29
51261;BME280;61705;46.228;24.812;2023-05-19T08:32:50;97945.66;;;19.82;62.08
51261;BME280;61705;46.228;24.812;2023-05-19T08:35:17;97948.69;;;19.88;61.22
51261;BME280;61705;46.228;24.812;2023-05-19T08:37:44;97949.53;;;19.89;60.82
51261;BME280;61705;46.228;24.812;2023-05-19T08:40:15;97948.47;;;19.80;61.42
51261;BME280;61705;46.228;24.812;2023-05-19T08:42:46;97951.16;;;19.80;60.87
51261;BME280;61705;46.228;24.812;2023-05-19T08:45:13;97945.41;;;20.07;60.05
51261;BME280;61705;46.228;24.812;2023-05-19T08:47:40;97941.38;;;20.24;59.30
51261;BME280;61705;46.228;24.812;2023-05-19T08:50:10;97942.34;;;20.23;59.12
51261;BME280;61705;46.228;24.812;2023-05-19T08:52:43;97942.72;;;20.41;58.59
51261;BME280;61705;46.228;24.812;2023-05-19T08:55:28;97939.53;;;20.91;56.98
51261;BME280;61705;46.228;24.812;2023-05-19T08:58:03;97926.13;;;21.44;55.64
51261;BME280;61705;46.228;24.812;2023-05-19T09:00:31;97927.28;;;21.51;54.72
51261;BME280;61705;46.228;24.812;2023-05-19T09:02:59;97934.97;;;21.35;54.26
51261;BME280;61705;46.228;24.812;2023-05-19T09:05:31;97928.38;;;21.69;53.94
51261;BME280;61705;46.228;24.812;2023-05-19T09:07:59;97932.50;;;21.73;53.54
51261;BME280;61705;46.228;24.812;2023-05-19T09:10:28;97929.44;;;21.78;53.24
51261;BME280;61705;46.228;24.812;2023-05-19T09:12:55;97922.84;;;22.01;52.53
51261;BME280;61705;46.228;24.812;2023-05-19T09:15:25;97917.47;;;22.01;52.06
51261;BME280;61705;46.228;24.812;2023-05-19T09:18:06;97919.78;;;22.06;52.32
51261;BME280;61705;46.228;24.812;2023-05-19T09:20:42;97915.97;;;22.09;52.80
51261;BME280;61705;46.228;24.812;2023-05-19T09:23:13;97913.97;;;22.11;52.02
51261;BME280;61705;46.228;24.812;2023-05-19T09:25:46;97909.38;;;22.32;51.73
51261;BME280;61705;46.228;24.812;2023-05-19T09:28:14;97910.41;;;22.41;51.36
51261;BME280;61705;46.228;24.812;2023-05-19T09:30:48;97909.75;;;22.58;51.30
51261;BME280;61705;46.228;24.812;2023-05-19T09:33:20;97909.41;;;22.42;51.15
51261;BME280;61705;46.228;24.812;2023-05-19T09:35:47;97908.47;;;22.62;51.03
51261;BME280;61705;46.228;24.812;2023-05-19T09:38:17;97907.06;;;22.68;50.67
51261;BME280;61705;46.228;24.812;2023-05-19T09:40:47;97905.94;;;22.61;51.29
51261;BME280;61705;46.228;24.812;2023-05-19T09:43:17;97905.75;;;22.53;50.58
51261;BME280;61705;46.228;24.812;2023-05-19T09:45:43;97911.31;;;22.61;51.17
51261;BME280;61705;46.228;24.812;2023-05-19T09:48:10;97904.81;;;22.63;51.00
51261;BME280;61705;46.228;24.812;2023-05-19T09:50:37;97899.00;;;22.78;50.58
51261;BME280;61705;46.228;24.812;2023-05-19T09:53:04;97893.06;;;22.84;48.13
51261;BME280;61705;46.228;24.812;2023-05-19T09:55:33;97890.19;;;23.24;47.45
51261;BME280;61705;46.228;24.812;2023-05-19T09:58:00;97893.22;;;23.02;47.62
51261;BME280;61705;46.228;24.812;2023-05-19T10:00:31;97892.09;;;23.04;47.09
51261;BME280;61705;46.228;24.812;2023-05-19T10:02:58;97887.66;;;22.74;47.96
51261;BME280;61705;46.228;24.812;2023-05-19T10:05:26;97884.41;;;23.09;47.61
51261;BME280;61705;46.228;24.812;2023-05-19T10:07:54;97882.38;;;23.21;47.30
51261;BME280;61705;46.228;24.812;2023-05-19T10:10:21;97892.34;;;22.91;47.39
51261;BME280;61705;46.228;24.812;2023-05-19T10:12:48;97887.94;;;22.81;47.33
51261;BME280;61705;46.228;24.812;2023-05-19T10:15:16;97891.66;;;23.09;47.06
51261;BME280;61705;46.228;24.812;2023-05-19T10:17:45;97887.81;;;23.11;47.33
51261;BME280;61705;46.228;24.812;2023-05-19T10:20:15;97881.41;;;23.22;46.48
51261;BME280;61705;46.228;24.812;2023-05-19T10:22:45;97895.06;;;23.01;47.72
51261;BME280;61705;46.228;24.812;2023-05-19T10:25:12;97894.06;;;22.92;48.85
51261;BME280;61705;46.228;24.812;2023-05-19T10:28:10;97891.66;;;22.99;48.98
51261;BME280;61705;46.228;24.812;2023-05-19T10:30:39;97893.78;;;22.96;49.95
51261;BME280;61705;46.228;24.812;2023-05-19T10:33:11;97892.22;;;23.12;50.72
51261;BME280;61705;46.228;24.812;2023-05-19T10:38:39;97890.59;;;22.61;53.06
51261;BME280;61705;46.228;24.812;2023-05-19T10:41:15;97875.31;;;22.91;52.11
51261;BME280;61705;46.228;24.812;2023-05-19T10:46:28;97865.91;;;23.34;50.38
51261;BME280;61705;46.228;24.812;2023-05-19T10:48:55;97857.72;;;23.06;51.06
51261;BME280;61705;46.228;24.812;2023-05-19T10:51:31;97859.56;;;23.25;50.87
51261;BME280;61705;46.228;24.812;2023-05-19T10:54:02;97862.66;;;23.21;50.47
51261;BME280;61705;46.228;24.812;2023-05-19T10:56:38;97865.63;;;23.27;49.81
51261;BME280;61705;46.228;24.812;2023-05-19T10:59:34;97855.84;;;23.36;50.03
51261;BME280;61705;46.228;24.812;2023-05-19T11:02:07;97854.72;;;23.38;49.28
51261;BME280;61705;46.228;24.812;2023-05-19T11:04:52;97833.81;;;23.40;49.15
51261;BME280;61705;46.228;24.812;2023-05-19T11:07:23;97827.13;;;23.45;49.11
51261;BME280;61705;46.228;24.812;2023-05-19T11:09:51;97833.06;;;23.68;48.31
51261;BME280;61705;46.228;24.812;2023-05-19T11:12:22;97826.66;;;23.69;47.07
51261;BME280;61705;46.228;24.812;2023-05-19T11:14:53;97833.19;;;23.66;45.83
51261;BME280;61705;46.228;24.812;2023-05-19T11:17:23;97830.34;;;23.68;44.31
51261;BME280;61705;46.228;24.812;2023-05-19T11:19:53;97824.81;;;23.59;44.04
51261;BME280;61705;46.228;24.812;2023-05-19T11:22:26;97820.78;;;23.83;43.89
51261;BME280;61705;46.228;24.812;2023-05-19T11:24:54;97822.44;;;23.94;43.91
51261;BME280;61705;46.228;24.812;2023-05-19T11:27:28;97817.38;;;23.81;42.54
51261;BME280;61705;46.228;24.812;2023-05-19T11:32:38;97814.25;;;23.76;43.10
51261;BME280;61705;46.228;24.812;2023-05-19T11:35:08;97824.41;;;23.92;42.08
51261;BME280;61705;46.228;24.812;2023-05-19T11:37:35;97816.66;;;24.06;41.73
51261;BME280;61705;46.228;24.812;2023-05-19T11:40:03;97816.59;;;24.16;41.27
51261;BME280;61705;46.228;24.812;2023-05-19T11:42:34;97815.34;;;24.38;40.60
51261;BME280;61705;46.228;24.812;2023-05-19T11:45:02;97815.38;;;24.56;39.22
51261;BME280;61705;46.228;24.812;2023-05-19T11:47:30;97801.97;;;24.54;37.65
51261;BME280;61705;46.228;24.812;2023-05-19T11:50:12;97799.38;;;24.63;36.85
51261;BME280;61705;46.228;24.812;2023-05-19T11:52:43;97794.50;;;24.66;36.74
51261;BME280;61705;46.228;24.812;2023-05-19T11:55:14;97798.03;;;24.85;36.84
51261;BME280;61705;46.228;24.812;2023-05-19T11:57:59;97797.97;;;24.76;37.33
51261;BME280;61705;46.228;24.812;2023-05-19T12:00:34;97791.09;;;24.64;37.40
51261;BME280;61705;46.228;24.812;2023-05-19T12:03:05;97787.25;;;25.37;36.87
51261;BME280;61705;46.228;24.812;2023-05-19T12:05:36;97784.88;;;25.08;36.47
51261;BME280;61705;46.228;24.812;2023-05-19T12:08:09;97780.47;;;24.63;36.13
51261;BME280;61705;46.228;24.812;2023-05-19T12:10:37;97784.28;;;24.96;37.22
51261;BME280;61705;46.228;24.812;2023-05-19T12:13:05;97784.84;;;24.64;37.95
51261;BME280;61705;46.228;24.812;2023-05-19T12:15:34;97782.25;;;24.72;37.81
51261;BME280;61705;46.228;24.812;2023-05-19T12:18:02;97785.94;;;24.53;36.59
51261;BME280;61705;46.228;24.812;2023-05-19T12:20:29;97786.25;;;24.50;36.53
51261;BME280;61705;46.228;24.812;2023-05-19T12:23:01;97784.16;;;25.23;35.77
51261;BME280;61705;46.228;24.812;2023-05-19T12:25:35;97778.44;;;25.26;35.87
51261;BME280;61705;46.228;24.812;2023-05-19T12:28:04;97784.47;;;25.81;34.77
51261;BME280;61705;46.228;24.812;2023-05-19T12:30:31;57215.63;;;-144.75;100.00
51261;BME280;61705;46.228;24.812;2023-05-19T12:33:00;57215.63;;;-144.75;100.00
51261;BME280;61705;46.228;24.812;2023-05-19T12:35:32;57215.63;;;-144.75;100.00
51261;BME280;61705;46.228;24.812;2023-05-19T12:38:05;57215.63;;;-144.75;100.00
51261;BME280;61705;46.228;24.812;2023-05-19T12:40:35;57215.63;;;-144.75;100.00
51261;BME280;61705;46.228;24.812;2023-05-19T12:43:05;57215.63;;;-144.75;100.00
51261;BME280;61705;46.228;24.812;2023-05-19T12:45:34;57215.63;;;-144.75;100.00
51261;BME280;61705;46.228;24.812;2023-05-19T12:48:03;57215.63;;;-144.75;100.00
51261;BME280;61705;46.228;24.812;2023-05-19T12:50:31;57215.63;;;-144.75;100.00
51261;BME280;61705;46.228;24.812;2023-05-19T12:53:00;57215.63;;;-144.75;100.00
51261;BME280;61705;46.228;24.812;2023-05-19T12:55:28;57215.63;;;-144.75;100.00
51261;BME280;61705;46.228;24.812;2023-05-19T12:57:56;57215.63;;;-144.75;100.00
51261;BME280;61705;46.228;24.812;2023-05-19T13:00:24;57215.63;;;-144.75;100.00
51261;BME280;61705;46.228;24.812;2023-05-19T13:03:04;57215.63;;;-144.75;100.00
51261;BME280;61705;46.228;24.812;2023-05-19T13:05:36;57215.63;;;-144.75;100.00
51261;BME280;61705;46.228;24.812;2023-05-19T13:08:05;57215.63;;;-144.75;100.00
51261;BME280;61705;46.228;24.812;2023-05-19T13:10:34;57215.63;;;-144.75;100.00
51261;BME280;61705;46.228;24.812;2023-05-19T13:13:01;57215.63;;;-144.75;100.00
51261;BME280;61705;46.228;24.812;2023-05-19T13:15:30;57215.63;;;-144.75;100.00
51261;BME280;61705;46.228;24.812;2023-05-19T13:18:01;57215.63;;;-144.75;100.00
51261;BME280;61705;46.228;24.812;2023-05-19T13:20:38;57215.63;;;-144.75;100.00